createdAt,value
2022-10-19T00:04:30.463Z,4.56
2022-10-19T00:09:32.086Z,4.58
2022-10-19T00:14:35.769Z,4.62
2022-10-19T00:19:39.341Z,4.71
2022-10-19T00:24:41.203Z,4.83
2022-10-19T00:29:42.574Z,4.81
2022-10-19T00:34:44.015Z,4.74
2022-10-19T00:39:45.477Z,4.68
2022-10-19T00:44:46.872Z,4.25
2022-10-19T00:49:48.512Z,4.25
2022-10-19T00:54:51.779Z,4.24
2022-10-19T00:59:53.670Z,4.12
2022-10-19T01:04:55.629Z,4.19
2022-10-19T01:09:57.252Z,4.10
2022-10-19T01:15:17.272Z,4.13
2022-10-19T01:20:18.648Z,4.07
2022-10-19T01:25:33.094Z,4.19
2022-10-19T01:30:51.686Z,4.05
2022-10-19T01:36:32.025Z,4.05
2022-10-19T01:41:43.301Z,3.89
2022-10-19T01:46:52.451Z,3.82
2022-10-19T01:52:03.218Z,3.75
2022-10-19T01:57:07.658Z,3.72
2022-10-19T02:02:10.561Z,3.71
2022-10-19T02:07:12.749Z,3.53
2022-10-19T02:12:16.075Z,3.62
2022-10-19T02:17:22.381Z,3.57
2022-10-19T02:22:24.074Z,3.50
2022-10-19T02:27:26.174Z,3.45
2022-10-19T02:32:28.169Z,3.44
2022-10-19T02:37:29.633Z,3.44
2022-10-19T02:42:40.171Z,3.36
2022-10-19T02:48:22.470Z,3.35
2022-10-19T02:53:23.948Z,3.29
2022-10-19T02:58:25.333Z,3.31
2022-10-19T03:03:26.750Z,3.29
2022-10-19T03:08:28.134Z,3.25
2022-10-19T03:13:29.533Z,3.25
2022-10-19T03:18:30.913Z,3.27
2022-10-19T03:23:32.365Z,3.28
2022-10-19T03:28:34.178Z,3.06
2022-10-19T03:33:35.589Z,3.23
2022-10-19T03:38:37.013Z,3.10
2022-10-19T03:43:38.576Z,3.10
2022-10-19T03:48:40.260Z,3.00
2022-10-19T03:53:42.170Z,2.92
2022-10-19T03:58:45.645Z,2.90
2022-10-19T04:03:47.185Z,2.82
2022-10-19T04:08:49.985Z,2.73
2022-10-19T04:13:56.637Z,2.68
2022-10-19T04:18:58.348Z,2.71
2022-10-19T04:24:05.613Z,2.61
2022-10-19T04:29:07.078Z,2.53
2022-10-19T04:34:08.814Z,2.57
2022-10-19T04:39:10.445Z,2.58
2022-10-19T04:44:11.963Z,2.58
2022-10-19T04:49:16.438Z,2.63
2022-10-19T04:54:20.888Z,2.69
2022-10-19T04:59:22.306Z,2.56
2022-10-19T05:04:23.745Z,2.50
2022-10-19T05:09:25.340Z,2.56
2022-10-19T05:19:29.222Z,2.53
2022-10-19T05:24:32.533Z,2.47
2022-10-19T05:29:33.961Z,2.44
2022-10-19T05:34:35.366Z,2.44
2022-10-19T05:39:36.817Z,2.49
2022-10-19T05:49:44.604Z,2.26
2022-10-19T05:54:46.036Z,2.31
2022-10-19T05:59:47.457Z,2.29
2022-10-19T06:04:48.861Z,2.08
2022-10-19T06:09:50.250Z,2.04
2022-10-19T06:14:51.810Z,2.14
2022-10-19T06:19:53.201Z,2.27
2022-10-19T06:24:55.396Z,2.10
2022-10-19T06:29:56.844Z,2.15
2022-10-19T06:34:58.246Z,2.04
2022-10-19T06:40:07.187Z,2.32
2022-10-19T06:45:10.099Z,2.27
2022-10-19T06:50:11.700Z,2.29
2022-10-19T06:55:13.190Z,2.66
2022-10-19T07:00:14.971Z,2.70
2022-10-19T07:05:16.405Z,2.88
2022-10-19T07:10:18.040Z,3.05
2022-10-19T07:15:19.434Z,3.01
2022-10-19T07:20:20.910Z,3.52
2022-10-19T07:25:22.320Z,3.76
2022-10-19T07:30:23.858Z,4.21
2022-10-19T07:35:25.277Z,4.47
2022-10-19T07:40:26.656Z,4.93
2022-10-19T07:45:28.156Z,5.17
2022-10-19T07:50:29.570Z,5.40
2022-10-19T07:55:30.937Z,5.50
2022-10-19T08:00:33.062Z,5.88
2022-10-19T08:05:34.919Z,6.23
2022-10-19T08:10:36.446Z,6.44
2022-10-19T08:15:37.870Z,6.74
2022-10-19T08:20:44.059Z,6.99
2022-10-19T08:25:45.460Z,7.12
2022-10-19T08:30:46.865Z,7.66
2022-10-19T08:35:48.259Z,7.81
2022-10-19T08:40:49.733Z,8.10
2022-10-19T09:05:38.165Z,9.33
2022-10-19T09:10:47.874Z,9.50
2022-10-19T09:15:55.273Z,9.54
2022-10-19T09:21:16.817Z,9.86
2022-10-19T09:26:21.668Z,10.05
2022-10-19T09:31:40.721Z,10.12
2022-10-19T09:36:50.547Z,10.27
2022-10-19T09:41:57.328Z,10.44
2022-10-19T09:47:14.229Z,10.66
2022-10-19T09:52:50.422Z,10.75
2022-10-19T09:58:00.473Z,10.76
2022-10-19T10:03:04.347Z,10.70
2022-10-19T10:08:27.616Z,10.75
2022-10-19T10:13:32.315Z,10.87
2022-10-19T10:18:54.879Z,11.28
2022-10-19T10:24:30.026Z,11.50
2022-10-19T10:29:47.332Z,11.86
2022-10-19T10:35:22.303Z,12.42
2022-10-19T10:40:33.510Z,13.19
2022-10-19T10:46:08.634Z,13.18
2022-10-19T10:51:52.203Z,13.30
2022-10-19T10:57:12.322Z,13.68
2022-10-19T11:02:48.289Z,13.36
2022-10-19T11:08:27.849Z,14.16
2022-10-19T11:13:42.663Z,14.08
2022-10-19T11:19:07.334Z,13.99
2022-10-19T11:24:49.539Z,13.81
2022-10-19T11:30:01.171Z,13.51
2022-10-19T11:35:32.126Z,14.69
2022-10-19T11:41:17.751Z,13.61
2022-10-19T11:46:37.523Z,13.98
2022-10-19T11:51:54.849Z,13.62
2022-10-19T11:57:11.501Z,13.92
2022-10-19T12:02:52.711Z,13.67
2022-10-19T12:08:35.376Z,13.35
2022-10-19T12:13:57.999Z,13.47
2022-10-19T12:19:03.250Z,13.32
2022-10-19T12:24:15.879Z,13.55
2022-10-19T12:29:40.714Z,13.38
2022-10-19T12:35:07.610Z,13.37
2022-10-19T12:40:23.467Z,13.50
2022-10-19T12:45:44.182Z,13.10
2022-10-19T12:50:48.658Z,13.21
2022-10-19T12:56:04.040Z,13.24
2022-10-19T13:01:07.362Z,13.37
2022-10-19T13:06:17.903Z,13.32
2022-10-19T13:11:20.551Z,13.54
2022-10-19T13:16:37.007Z,13.51
2022-10-19T13:21:45.831Z,13.38
2022-10-19T13:26:47.273Z,13.44
2022-10-19T13:31:48.761Z,13.42
2022-10-19T13:37:03.641Z,13.19
2022-10-19T13:42:05.068Z,13.07
2022-10-19T13:47:33.505Z,13.16
2022-10-19T13:52:51.084Z,12.98
2022-10-19T13:58:14.112Z,13.02
2022-10-19T14:03:54.499Z,12.99
2022-10-19T14:09:17.734Z,12.92
2022-10-19T14:14:24.277Z,12.90
2022-10-19T14:19:41.173Z,12.79
2022-10-19T14:24:42.968Z,12.69
2022-10-19T14:29:48.435Z,12.57
2022-10-19T14:34:50.319Z,12.44
2022-10-19T14:40:26.699Z,12.39
2022-10-19T14:45:34.849Z,12.29
2022-10-19T14:51:00.206Z,12.18
2022-10-19T14:56:29.774Z,12.07
2022-10-19T15:01:42.586Z,11.97
2022-10-19T15:06:52.939Z,11.92
2022-10-19T15:12:10.766Z,12.05
2022-10-19T15:17:35.229Z,12.06
2022-10-19T15:22:49.697Z,12.16
2022-10-19T15:28:29.606Z,12.06
2022-10-19T15:34:12.723Z,12.07
2022-10-19T15:39:37.048Z,11.91
2022-10-19T15:44:57.269Z,11.76
2022-10-19T15:50:03.246Z,11.75
2022-10-19T15:55:05.122Z,11.54
2022-10-19T16:00:35.303Z,11.43
2022-10-19T16:06:04.727Z,11.26
2022-10-19T16:11:14.290Z,11.08
2022-10-19T16:16:28.285Z,11.00
2022-10-19T16:21:50.444Z,10.90
2022-10-19T16:27:01.161Z,10.87
2022-10-19T16:32:02.653Z,10.81
2022-10-19T16:37:08.108Z,10.69
2022-10-19T16:42:14.837Z,10.60
2022-10-19T16:47:17.060Z,10.42
2022-10-19T16:52:18.911Z,10.41
2022-10-19T16:57:21.475Z,10.41
2022-10-19T17:02:51.608Z,10.23
2022-10-19T17:07:58.478Z,10.24
2022-10-19T17:13:05.058Z,10.13
2022-10-19T17:18:06.616Z,10.19
2022-10-19T17:23:09.564Z,10.19
2022-10-19T17:28:19.216Z,10.17
2022-10-19T17:33:21.805Z,10.18
2022-10-19T17:38:23.569Z,10.15
2022-10-19T17:43:35.944Z,10.15
2022-10-19T17:48:47.039Z,10.23
2022-10-19T17:54:14.283Z,10.16
2022-10-19T17:59:34.630Z,10.13
2022-10-19T18:04:57.358Z,10.12
2022-10-19T18:10:01.282Z,10.11
2022-10-19T18:15:05.619Z,10.04
2022-10-19T18:20:20.723Z,9.96
2022-10-19T18:25:53.089Z,10.00
2022-10-19T18:31:03.127Z,9.94
2022-10-19T18:36:09.237Z,9.93
2022-10-19T18:46:13.717Z,9.74
2022-10-19T18:51:19.540Z,9.69
2022-10-19T18:56:29.096Z,9.62
2022-10-19T19:01:31.195Z,9.60
2022-10-19T19:06:44.622Z,9.57
2022-10-19T19:12:16.466Z,9.50
2022-10-19T19:17:12.390Z,9.52
2022-10-19T19:22:20.055Z,9.40
2022-10-19T19:27:31.600Z,9.42
2022-10-19T19:32:34.934Z,9.33
2022-10-19T19:37:37.001Z,9.25
2022-10-19T19:42:45.947Z,9.13
2022-10-19T19:47:52.914Z,9.13
2022-10-19T19:52:56.010Z,9.18
2022-10-19T19:57:57.578Z,9.08
2022-10-19T20:03:16.644Z,9.08
2022-10-19T20:08:19.462Z,8.96
2022-10-19T20:13:25.355Z,8.95
2022-10-19T20:18:32.843Z,8.96
2022-10-19T20:23:41.659Z,8.98
2022-10-19T20:28:47.765Z,8.86
2022-10-19T20:33:49.848Z,8.85
2022-10-19T20:38:57.972Z,8.84
2022-10-19T20:44:05.439Z,8.84
2022-10-19T20:49:11.259Z,8.74
2022-10-19T20:54:18.972Z,8.76
2022-10-19T20:59:27.805Z,8.77
2022-10-19T21:04:33.979Z,8.69
2022-10-19T21:09:41.589Z,8.63
2022-10-19T21:14:45.981Z,8.75
2022-10-19T21:19:49.039Z,8.66
2022-10-19T21:24:56.494Z,8.67
2022-10-19T21:30:01.022Z,8.71
2022-10-19T21:35:02.997Z,8.69
2022-10-19T21:40:09.709Z,8.57
2022-10-19T21:45:29.125Z,8.61
2022-10-19T21:50:31.343Z,8.52
2022-10-19T21:55:35.857Z,8.44
2022-10-19T22:05:59.903Z,8.40
2022-10-19T22:11:12.128Z,8.35
2022-10-19T22:16:23.157Z,8.27
2022-10-19T22:21:30.191Z,8.25
2022-10-19T22:26:41.069Z,8.17
2022-10-19T22:31:43.178Z,8.10
2022-10-19T22:36:45.018Z,8.12
2022-10-19T22:42:44.711Z,8.02
2022-10-19T22:47:48.669Z,7.99
2022-10-19T22:52:50.200Z,8.06
2022-10-19T22:57:53.159Z,8.03
2022-10-19T23:02:57.559Z,7.91
2022-10-19T23:08:02.795Z,7.99
2022-10-19T23:13:20.135Z,8.00
2022-10-19T23:18:22.220Z,7.94
2022-10-19T23:23:30.975Z,7.97
2022-10-19T23:28:35.019Z,7.94
2022-10-19T23:33:39.415Z,8.00
2022-10-19T23:38:46.689Z,8.06
2022-10-19T23:43:48.318Z,8.17
2022-10-19T23:48:49.795Z,8.21
2022-10-19T23:53:53.191Z,8.17
2022-10-19T23:58:55.457Z,8.21
